Time;durP1;ratioP1;P1;durP2;ratioP2;P2;SDS_P1;SDS_P2;PMS_P1;PMS_P2;Temp;Humidity;BMP_temperature;BMP_pressure;BME280_temperature;BME280_humidity;BME280_pressure;Samples;Min_cycle;Max_cycle;Signal;HPM_P1;HPM_P2
2021/05/10 00:02:12;;;;;;;11.02;3.45;;;;;;;-150.07;67.13;56545.47;5012074;28;20084;-81
2021/05/10 00:04:39;;;;;;;23.05;5.10;;;;;;;-150.07;67.58;56562.19;4995981;28;20442;-81
2021/05/10 00:07:06;;;;;;;24.00;4.80;;;;;;;-150.07;67.17;56800.44;5012819;28;20032;-81
2021/05/10 00:09:33;;;;;;;16.95;4.50;;;;;;;-150.07;66.12;56547.53;5012720;28;21700;-80
2021/05/10 00:11:59;;;;;;;23.70;5.05;;;;;;;-150.07;66.38;56520.38;5011564;28;20033;-81
2021/05/10 00:14:39;;;;;;;17.33;4.38;;;;;;;-150.07;66.63;56455.59;5013037;28;20037;-81
2021/05/10 00:17:06;;;;;;;19.00;5.15;;;;;;;-150.07;66.88;56509.94;5013240;28;20033;-81
2021/05/10 00:19:33;;;;;;;8.95;4.25;;;;;;;-150.07;67.17;56445.13;5012404;28;20076;-81
2021/05/10 00:22:00;;;;;;;16.17;4.75;;;;;;;-150.07;67.62;56562.19;5011703;28;20068;-80
2021/05/10 00:24:27;;;;;;;15.80;4.95;;;;;;;-150.07;67.88;56476.50;4994735;28;20030;-81
2021/05/10 00:26:54;;;;;;;16.38;4.97;;;;;;;-150.07;67.95;56455.59;5007536;28;20033;-81
2021/05/10 00:29:21;;;;;;;15.63;4.65;;;;;;;-150.07;67.93;56547.53;4994990;28;20026;-81
2021/05/10 00:31:49;;;;;;;21.83;5.22;;;;;;;-150.07;68.33;56512.00;4986453;28;20113;-81
2021/05/10 00:34:16;;;;;;;16.45;5.95;;;;;;;-150.07;68.25;56725.19;5012888;28;20479;-80
2021/05/10 00:36:43;;;;;;;11.23;4.70;;;;;;;-150.07;68.44;56547.53;5012011;28;20026;-80
2021/05/10 00:39:10;;;;;;;15.13;6.43;;;;;;;-150.07;68.67;56497.38;5008665;28;20034;-80
2021/05/10 00:41:38;;;;;;;22.67;5.57;;;;;;;-150.07;68.40;56564.25;5004494;28;20414;-80
2021/05/10 00:44:06;;;;;;;16.85;5.63;;;;;;;-150.07;68.66;56518.28;5007782;28;20045;-81
2021/05/10 00:46:33;;;;;;;13.75;4.85;;;;;;;-150.07;68.54;56785.81;5011340;28;20022;-80
2021/05/10 00:49:00;;;;;;;18.17;5.32;;;;;;;-150.07;68.00;56514.09;5008861;28;20073;-81
2021/05/10 00:51:27;;;;;;;16.25;4.55;;;;;;;-150.07;68.09;56578.91;4997147;28;20419;-80
2021/05/10 00:53:54;;;;;;;10.77;4.38;;;;;;;-150.07;68.53;56493.22;5014034;28;20080;-81
2021/05/10 00:56:21;;;;;;;16.17;4.97;;;;;;;-150.07;67.97;56480.66;5013738;28;20032;-80
2021/05/10 00:58:48;;;;;;;9.88;4.10;;;;;;;-150.07;67.43;56756.53;5015015;28;20117;-82
2021/05/10 01:01:15;;;;;;;10.05;5.25;;;;;;;-150.07;67.96;56476.50;4995350;28;20034;-84
2021/05/10 01:03:50;;;;;;;18.27;6.45;;;;;;;-150.07;68.13;56530.81;5024028;28;20018;-93
2021/05/10 01:06:17;;;;;;;20.35;5.95;;;;;;;-150.07;68.01;56806.72;4998583;28;20025;-94
2021/05/10 01:08:44;;;;;;;16.63;5.78;;;;;;;-150.07;67.85;56317.66;5009955;28;20049;-93
2021/05/10 01:11:11;;;;;;;17.63;5.93;;;;;;;-150.07;67.57;56459.75;5000820;28;20141;-94
2021/05/10 01:13:38;;;;;;;14.00;7.38;;;;;;;-150.07;67.17;56497.38;4993161;28;20419;-94
2021/05/10 01:16:05;;;;;;;12.43;5.47;;;;;;;-150.07;67.93;56698.03;5003338;28;20053;-94
2021/05/10 01:18:34;;;;;;;14.77;6.80;;;;;;;-150.07;68.10;56461.84;5007348;28;20017;-92
2021/05/10 01:21:02;;;;;;;16.15;5.85;;;;;;;-150.07;67.71;56476.50;4996673;28;20122;-94
2021/05/10 01:23:29;;;;;;;16.83;5.90;;;;;;;-150.07;67.77;56436.78;5012433;28;20030;-93
2021/05/10 01:25:58;;;;;;;10.27;5.63;;;;;;;-150.07;68.08;56698.03;5010587;28;20061;-94
2021/05/10 01:28:26;;;;;;;7.82;5.82;;;;;;;-150.07;68.24;56480.66;5012860;28;20442;-94
2021/05/10 01:30:53;;;;;;;11.00;7.15;;;;;;;-150.07;68.55;56539.19;4991557;28;20022;-93
2021/05/10 01:33:21;;;;;;;13.65;7.43;;;;;;;-150.07;68.52;56524.56;5007672;28;20027;-94
2021/05/10 01:35:52;;;;;;;10.18;7.00;;;;;;;-150.07;68.24;56526.66;5008682;28;20133;-94
2021/05/10 01:38:21;;;;;;;15.20;10.93;;;;;;;-150.07;67.44;56543.38;5009042;28;20042;-95
2021/05/10 01:40:49;;;;;;;17.67;12.47;;;;;;;-150.07;67.36;56482.75;4978875;28;20064;-93
2021/05/10 01:43:17;;;;;;;18.40;10.75;;;;;;;-150.07;66.78;56748.19;5003745;28;20276;-91
2021/05/10 01:45:45;;;;;;;12.77;9.85;;;;;;;-150.07;66.81;56363.63;5007881;28;20031;-93
2021/05/10 01:48:13;;;;;;;11.57;9.20;;;;;;;-150.07;67.56;56509.94;5005463;28;20026;-93
2021/05/10 01:50:43;;;;;;;13.35;9.10;;;;;;;-150.07;67.42;56516.19;4985859;28;20165;-91
2021/05/10 01:53:10;;;;;;;13.52;9.13;;;;;;;-150.07;67.81;56564.25;4997522;28;20013;-91
2021/05/10 01:55:38;;;;;;;12.77;8.20;;;;;;;-150.07;67.89;56819.25;5028193;28;20041;-92
2021/05/10 01:58:06;;;;;;;9.98;6.60;;;;;;;-150.07;67.26;56507.84;5015322;28;20026;-89
2021/05/10 02:00:36;;;;;;;14.93;8.45;;;;;;;-150.07;67.16;56645.78;5027522;28;20074;-89
2021/05/10 02:03:04;;;;;;;12.50;8.93;;;;;;;-150.07;68.20;56804.63;5009745;28;20026;-89
2021/05/10 02:05:32;;;;;;;13.05;11.32;;;;;;;-150.07;68.07;56547.53;4983959;28;20111;-91
2021/05/10 02:08:01;;;;;;;16.23;11.52;;;;;;;-150.07;68.27;56484.84;4979423;28;20035;-92
2021/05/10 02:10:32;;;;;;;17.35;14.45;;;;;;;-150.07;68.10;56535.00;4980065;28;20054;-93
2021/05/10 02:13:02;;;;;;;17.50;14.30;;;;;;;-150.07;67.48;56787.91;4999924;28;20021;-90
2021/05/10 02:15:32;;;;;;;17.17;14.98;;;;;;;-150.07;67.31;56560.09;5001527;28;20057;-89
2021/05/10 02:17:59;;;;;;;22.02;17.52;;;;;;;-150.07;67.73;56789.97;5001877;28;20073;-91
2021/05/10 02:20:28;;;;;;;21.70;17.52;;;;;;;-150.07;67.36;56535.00;4993252;28;20084;-91
2021/05/10 02:22:57;;;;;;;21.30;17.75;;;;;;;-150.07;66.04;56480.66;4990177;28;20093;-92
2021/05/10 02:25:30;;;;;;;21.73;16.85;;;;;;;-150.07;67.38;56524.56;5002221;28;20026;-89
2021/05/10 02:27:57;;;;;;;22.98;19.00;;;;;;;-150.07;66.75;56501.56;5015699;28;20080;-92
2021/05/10 02:30:27;;;;;;;20.25;16.83;;;;;;;-150.07;66.21;56543.38;5007978;28;20452;-91
2021/05/10 02:32:57;;;;;;;27.20;17.45;;;;;;;-150.07;66.08;56470.22;4998837;28;20406;-91
2021/05/10 02:35:24;;;;;;;25.38;21.73;;;;;;;-150.07;65.46;56443.06;5006052;28;20045;-89
2021/05/10 02:37:52;;;;;;;21.63;17.55;;;;;;;-150.07;65.14;56522.47;5007423;28;20048;-91
2021/05/10 02:40:20;;;;;;;21.75;18.95;;;;;;;-150.07;65.79;56526.66;5013098;28;20025;-90
2021/05/10 02:42:48;;;;;;;23.63;16.52;;;;;;;-150.07;65.37;56672.94;5007726;28;20022;-93
2021/05/10 02:45:16;;;;;;;23.70;18.98;;;;;;;-150.07;65.54;56472.31;5037265;28;20025;-95
2021/05/10 02:47:46;;;;;;;23.05;18.05;;;;;;;-150.07;66.07;56530.81;5019642;28;20022;-94
2021/05/10 02:50:15;;;;;;;25.00;17.63;;;;;;;-150.07;66.11;56698.03;5023245;28;20010;-95
2021/05/10 02:52:43;;;;;;;20.95;16.83;;;;;;;-150.07;65.59;56415.88;5023481;28;20026;-94
2021/05/10 02:55:13;;;;;;;27.05;19.00;;;;;;;-150.07;65.87;56445.13;5023470;28;20014;-94
2021/05/10 02:57:43;;;;;;;21.38;17.80;;;;;;;-150.07;65.94;56516.19;5040810;28;20129;-95
2021/05/10 03:00:14;;;;;;;23.55;18.60;;;;;;;-150.07;65.73;56526.66;5023098;28;20127;-94
2021/05/10 03:02:44;;;;;;;25.88;18.70;;;;;;;-150.07;66.58;56493.22;5039959;28;20018;-94
2021/05/10 03:05:40;;;;;;;27.30;19.70;;;;;;;-150.07;65.56;56528.72;5025574;28;20014;-93
2021/05/10 03:08:09;;;;;;;22.23;19.08;;;;;;;-150.07;66.04;56539.19;5008496;28;20022;-94
2021/05/10 03:10:38;;;;;;;26.77;20.10;;;;;;;-150.07;66.33;56463.94;5023355;28;20029;-95
2021/05/10 03:13:05;;;;;;;28.70;19.75;;;;;;;-150.07;66.81;56658.31;5018982;28;20261;-95
2021/05/10 03:15:32;;;;;;;24.30;19.48;;;;;;;-150.07;67.78;56413.78;5024038;28;20045;-94
2021/05/10 03:18:00;;;;;;;25.25;20.42;;;;;;;-150.07;67.68;56572.63;5023353;28;20084;-95
2021/05/10 03:20:27;;;;;;;27.80;20.48;;;;;;;-150.07;67.83;56535.00;4997516;28;20074;-93
2021/05/10 03:22:56;;;;;;;25.50;19.83;;;;;;;-150.07;67.77;56411.69;5016875;28;20014;-95
2021/05/10 03:25:24;;;;;;;28.60;18.73;;;;;;;-150.07;67.75;56543.38;5024472;28;20018;-93
2021/05/10 03:27:51;;;;;;;24.52;19.35;;;;;;;-150.07;67.65;56514.09;5007383;28;20033;-95
2021/05/10 03:30:23;;;;;;;21.23;18.75;;;;;;;-150.07;67.24;56551.72;5014812;28;20072;-90
2021/05/10 03:32:51;;;;;;;20.67;16.05;;;;;;;-150.07;66.71;56643.69;5015142;28;20025;-89
2021/05/10 03:35:21;;;;;;;25.80;17.45;;;;;;;-150.07;67.42;56417.97;5017761;28;20030;-88
2021/05/10 03:37:48;;;;;;;20.55;17.05;;;;;;;-150.07;67.48;56472.31;5015084;28;20050;-90
2021/05/10 03:40:16;;;;;;;21.77;17.63;;;;;;;-150.07;66.95;56505.75;5022248;28;20053;-91
2021/05/10 03:42:45;;;;;;;24.40;17.83;;;;;;;-150.07;67.38;56528.72;5017303;28;20026;-89
2021/05/10 03:45:14;;;;;;;28.40;18.63;;;;;;;-150.07;67.95;56489.03;5015137;28;20030;-88
2021/05/10 03:47:41;;;;;;;28.52;21.23;;;;;;;-150.07;67.68;56445.13;5010093;28;20133;-91
2021/05/10 03:50:10;;;;;;;28.15;20.50;;;;;;;-150.07;67.75;56547.53;4981219;28;20503;-90
2021/05/10 03:52:37;;;;;;;25.75;21.70;;;;;;;-150.07;67.75;56522.47;4981235;28;20467;-87
2021/05/10 03:55:05;;;;;;;22.95;17.98;;;;;;;-150.07;66.84;56474.41;4984499;28;20026;-92
2021/05/10 03:57:32;;;;;;;21.52;16.52;;;;;;;-150.07;66.62;56417.97;4981780;28;20098;-94
2021/05/10 03:59:59;;;;;;;18.45;13.60;;;;;;;-150.07;65.32;56503.66;4985865;28;20026;-93
2021/05/10 04:02:27;;;;;;;21.17;14.93;;;;;;;-150.07;65.84;56388.72;4993808;28;20479;-92
2021/05/10 04:05:26;;;;;;;16.40;14.55;;;;;;;-150.07;65.80;56472.31;4993723;28;20080;-94
2021/05/10 04:07:52;;;;;;;27.92;16.92;;;;;;;-150.07;64.97;56474.41;5019657;28;20053;-92
2021/05/10 04:15:31;;;;;;;17.58;14.02;;;;;;;-150.07;64.63;56806.72;5007253;28;20068;-90
2021/05/10 04:17:58;;;;;;;13.85;12.25;;;;;;;-150.07;65.04;56480.66;5006453;28;20029;-93
2021/05/10 04:20:25;;;;;;;18.45;12.20;;;;;;;-150.07;65.09;56426.31;5005136;28;20101;-93
2021/05/10 04:22:52;;;;;;;15.10;11.82;;;;;;;-150.07;65.24;56553.81;4997938;28;20038;-90
2021/05/10 04:25:19;;;;;;;16.30;12.90;;;;;;;-150.07;65.34;56530.81;5006874;28;20038;-92
2021/05/10 04:27:46;;;;;;;17.20;13.55;;;;;;;-150.07;65.06;56493.22;5008260;28;20018;-93
2021/05/10 04:30:14;;;;;;;19.13;16.63;;;;;;;-150.07;65.34;56526.66;5006498;28;20619;-92
2021/05/10 04:32:41;;;;;;;18.77;16.38;;;;;;;-150.07;65.40;56810.88;4994413;28;20113;-90
2021/05/10 04:35:08;;;;;;;18.23;15.38;;;;;;;-150.07;65.59;56526.66;4988663;28;20029;-91
2021/05/10 04:37:35;;;;;;;26.85;17.70;;;;;;;-150.07;65.11;56568.44;4991025;28;20057;-93
2021/05/10 04:40:04;;;;;;;22.13;18.40;;;;;;;-150.07;65.19;56815.06;4988551;28;20052;-91
2021/05/10 04:42:31;;;;;;;25.40;17.00;;;;;;;-150.07;64.51;56560.09;4999272;28;20030;-92
2021/05/10 04:44:58;;;;;;;20.10;17.90;;;;;;;-150.07;64.72;56804.63;5003373;28;20054;-93
2021/05/10 04:47:35;;;;;;;22.92;18.00;;;;;;;-150.07;65.34;56756.53;5003120;28;20045;-93
2021/05/10 04:50:05;;;;;;;22.75;19.23;;;;;;;-150.07;64.58;56526.66;4998315;28;20030;-93
2021/05/10 04:52:33;;;;;;;29.70;19.90;;;;;;;-150.07;64.62;56472.31;4989910;28;20022;-91
2021/05/10 04:55:00;;;;;;;20.00;17.98;;;;;;;-150.07;64.83;56509.94;4999829;28;20027;-94
2021/05/10 04:57:27;;;;;;;20.17;15.82;;;;;;;-150.07;64.53;56493.22;5023440;28;20026;-91
2021/05/10 04:59:54;;;;;;;19.23;15.60;;;;;;;-150.07;63.92;56509.94;5001808;28;20081;-93
2021/05/10 05:02:21;;;;;;;17.13;15.43;;;;;;;-150.07;64.24;56426.31;5002255;28;20036;-93
2021/05/10 05:04:48;;;;;;;18.48;15.27;;;;;;;-150.07;63.92;56493.22;5001340;28;20376;-92
2021/05/10 05:07:15;;;;;;;17.52;15.30;;;;;;;-150.07;62.52;56484.84;5002145;28;20026;-93
2021/05/10 05:09:42;;;;;;;18.58;15.30;;;;;;;-150.07;62.47;56535.00;4986994;28;20034;-92
2021/05/10 05:12:09;;;;;;;20.25;15.25;;;;;;;-150.07;62.89;56401.25;4986726;28;20125;-92
2021/05/10 05:14:35;;;;;;;18.67;14.63;;;;;;;-150.07;62.63;56687.56;4985892;28;20022;-94
2021/05/10 05:17:03;;;;;;;19.52;15.98;;;;;;;-150.07;62.25;56501.56;4982662;28;20038;-93
2021/05/10 05:19:29;;;;;;;18.08;15.63;;;;;;;-150.07;63.06;56478.56;4989272;28;20025;-93
2021/05/10 05:21:56;;;;;;;20.25;17.27;;;;;;;-150.07;62.59;56443.06;5003429;28;20097;-93
2021/05/10 05:24:23;;;;;;;17.15;15.30;;;;;;;-150.07;62.67;56466.03;5014132;28;20041;-92
2021/05/10 05:26:50;;;;;;;21.02;16.90;;;;;;;-150.07;63.55;56530.81;5001127;28;20026;-91
2021/05/10 05:29:21;;;;;;;18.02;16.20;;;;;;;-150.07;63.17;56522.47;4998635;28;20034;-93
2021/05/10 05:31:49;;;;;;;23.27;17.83;;;;;;;-150.07;63.30;56505.75;5009631;28;20042;-92
2021/05/10 05:34:17;;;;;;;20.02;18.13;;;;;;;-150.07;63.71;56474.41;4985704;28;20089;-91
2021/05/10 05:36:44;;;;;;;20.35;18.33;;;;;;;-150.07;63.66;56459.75;5003748;28;20033;-92
2021/05/10 05:39:12;;;;;;;18.45;16.30;;;;;;;-150.07;63.05;56549.63;5004640;28;20109;-90
2021/05/10 05:41:39;;;;;;;18.42;16.27;;;;;;;-150.07;62.72;56482.75;5002173;28;20042;-91
2021/05/10 05:44:07;;;;;;;20.48;17.15;;;;;;;-150.07;62.97;56489.03;4981440;28;20027;-94
2021/05/10 05:46:41;;;;;;;19.00;17.10;;;;;;;-150.07;63.38;56528.72;4983822;28;20061;-92
2021/05/10 05:49:11;;;;;;;21.00;16.98;;;;;;;-150.07;63.65;56468.13;4985072;28;20030;-92
2021/05/10 05:51:38;;;;;;;21.90;16.15;;;;;;;-150.07;63.05;56714.75;4985848;28;20116;-94
2021/05/10 05:54:05;;;;;;;20.70;16.00;;;;;;;-150.07;62.93;56447.22;4969016;28;20035;-93
2021/05/10 05:56:32;;;;;;;18.77;16.88;;;;;;;-150.07;63.07;56397.06;4984826;28;20030;-92
2021/05/10 05:58:59;;;;;;;17.83;16.00;;;;;;;-150.07;62.68;56518.28;5014313;28;20022;-93
2021/05/10 06:01:26;;;;;;;17.05;15.25;;;;;;;-150.07;62.70;56455.59;5002554;28;20072;-93
2021/05/10 06:03:54;;;;;;;17.33;15.55;;;;;;;-150.07;63.34;56708.47;4991479;28;20062;-93
2021/05/10 06:06:21;;;;;;;18.63;15.68;;;;;;;-150.07;62.77;56472.31;4981416;28;20010;-91
2021/05/10 06:08:48;;;;;;;22.20;16.23;;;;;;;-150.07;62.67;56382.44;4984139;28;20105;-93
2021/05/10 06:11:16;;;;;;;17.45;15.02;;;;;;;-150.07;63.12;56401.25;4998754;28;20041;-92
2021/05/10 06:13:43;;;;;;;19.60;17.13;;;;;;;-150.07;62.94;56401.25;5005311;28;20033;-94
2021/05/10 06:16:10;;;;;;;19.70;17.55;;;;;;;-150.07;62.55;56489.03;5012939;28;20033;-93
2021/05/10 06:18:37;;;;;;;16.95;15.25;;;;;;;-150.07;62.55;56468.13;5018321;28;20013;-93
2021/05/10 06:21:06;;;;;;;18.27;15.50;;;;;;;-150.07;62.70;56447.22;5004531;28;20022;-95
2021/05/10 06:23:33;;;;;;;17.55;15.75;;;;;;;-150.07;62.37;56459.75;4999501;28;20018;-92
2021/05/10 06:26:02;;;;;;;16.67;15.00;;;;;;;-150.07;61.87;56455.59;4990325;28;20365;-91
2021/05/10 06:28:30;;;;;;;17.58;15.68;;;;;;;-150.07;61.68;56505.75;5004681;28;20018;-91
2021/05/10 06:30:57;;;;;;;16.38;14.38;;;;;;;-150.07;61.62;56505.75;5001901;28;20036;-92
2021/05/10 06:33:23;;;;;;;18.55;16.52;;;;;;;-150.07;62.05;56472.31;5002135;28;20056;-93
2021/05/10 06:35:50;;;;;;;18.67;15.75;;;;;;;-150.07;61.62;56417.97;5004612;28;20049;-94
2021/05/10 06:38:18;;;;;;;22.38;16.83;;;;;;;-150.07;61.60;56326.03;5010296;28;20109;-93
2021/05/10 06:40:45;;;;;;;21.17;16.95;;;;;;;-150.07;61.71;56501.56;5005397;28;20030;-93
2021/05/10 06:43:12;;;;;;;17.98;15.65;;;;;;;-150.07;61.84;56422.16;4984555;28;20030;-92
2021/05/10 06:45:39;;;;;;;18.75;16.60;;;;;;;-150.07;61.90;56480.66;4983201;28;20471;-94
2021/05/10 06:48:06;;;;;;;17.17;14.90;;;;;;;-150.07;61.10;56518.28;4980670;28;20029;-93
2021/05/10 06:50:33;;;;;;;19.15;15.18;;;;;;;-150.07;60.61;56451.41;4980768;28;20077;-93
2021/05/10 06:52:59;;;;;;;16.20;14.63;;;;;;;-150.07;60.89;56489.03;4980546;28;20055;-92
2021/05/10 06:55:26;;;;;;;19.52;15.93;;;;;;;-150.07;60.30;56476.50;4982615;28;20022;-92
2021/05/10 06:57:53;;;;;;;17.42;15.60;;;;;;;-150.07;60.34;56474.41;4983204;28;20022;-92
2021/05/10 07:00:22;;;;;;;19.25;15.25;;;;;;;-150.07;60.02;56434.69;4987562;28;20523;-94
2021/05/10 07:02:49;;;;;;;19.00;15.52;;;;;;;-150.07;59.62;56361.53;5015101;28;20045;-94
2021/05/10 07:05:15;;;;;;;18.52;14.93;;;;;;;-150.07;59.29;56432.59;5022784;28;20083;-92
2021/05/10 07:07:42;;;;;;;16.10;14.40;;;;;;;-150.07;59.47;56507.84;5011161;28;20038;-93
2021/05/10 07:10:10;;;;;;;18.33;16.13;;;;;;;-150.07;58.52;56489.03;5007670;28;20030;-94
2021/05/10 07:12:37;;;;;;;17.40;13.60;;;;;;;-150.07;58.64;56430.50;4983423;28;20030;-93
2021/05/10 07:15:04;;;;;;;16.50;14.05;;;;;;;-150.07;58.61;56422.16;4982750;28;20026;-92
2021/05/10 07:17:31;;;;;;;14.77;13.27;;;;;;;-150.07;58.37;56773.25;4984474;28;20033;-93
2021/05/10 07:19:58;;;;;;;17.52;13.88;;;;;;;-150.07;59.27;56405.44;5014991;28;20030;-94
2021/05/10 07:22:25;;;;;;;14.45;12.50;;;;;;;-150.07;58.79;56484.84;4991479;28;20030;-93
2021/05/10 07:24:52;;;;;;;14.18;12.73;;;;;;;-150.07;58.07;56449.31;4997896;28;20061;-88
2021/05/10 07:27:22;;;;;;;12.50;10.50;;;;;;;-150.07;56.96;56438.88;5018360;28;20053;-93
2021/05/10 07:29:49;;;;;;;11.60;10.48;;;;;;;-150.07;56.83;56756.53;5019820;28;20064;-92
2021/05/10 07:32:16;;;;;;;15.82;10.80;;;;;;;-150.07;56.93;56505.75;5001748;28;20026;-93
2021/05/10 07:34:43;;;;;;;13.80;10.60;;;;;;;-150.07;56.89;56451.41;4981499;28;20025;-92
2021/05/10 07:37:09;;;;;;;15.50;11.00;;;;;;;-150.07;56.90;56493.22;5022535;28;20075;-94
2021/05/10 07:39:36;;;;;;;17.38;11.10;;;;;;;-150.07;56.48;56474.41;5019156;28;20034;-92
2021/05/10 07:42:03;;;;;;;12.07;11.00;;;;;;;-150.07;56.83;56372.00;5022623;28;20029;-91
2021/05/10 07:44:30;;;;;;;13.82;9.95;;;;;;;-150.07;57.14;56593.53;5017022;28;20028;-91
2021/05/10 07:46:57;;;;;;;11.45;10.35;;;;;;;-150.07;57.32;56516.19;5010503;28;20117;-89
2021/05/10 07:49:24;;;;;;;12.13;10.93;;;;;;;-150.07;57.16;56516.19;5000106;28;21166;-90
2021/05/10 07:51:51;;;;;;;19.50;11.85;;;;;;;-150.07;57.77;56735.66;4988407;28;20083;-90
2021/05/10 07:54:18;;;;;;;13.10;11.82;;;;;;;-150.07;57.91;56401.25;5010668;28;20089;-89
2021/05/10 07:56:44;;;;;;;12.85;11.15;;;;;;;-150.07;57.81;56397.06;5015185;28;20025;-92
2021/05/10 07:59:12;;;;;;;13.20;11.57;;;;;;;-150.07;56.69;56589.34;5015055;28;20022;-90
2021/05/10 08:01:39;;;;;;;17.35;12.18;;;;;;;-150.07;56.61;56413.78;5000870;28;20525;-89
2021/05/10 08:04:06;;;;;;;16.13;14.02;;;;;;;-150.07;56.94;56480.66;5002002;28;20030;-90
2021/05/10 08:06:36;;;;;;;18.60;14.35;;;;;;;-150.07;57.14;56785.81;5014618;28;20036;-90
2021/05/10 08:09:05;;;;;;;19.98;13.27;;;;;;;-150.07;57.41;56434.69;5003666;28;20033;-91
2021/05/10 08:11:32;;;;;;;16.92;14.25;;;;;;;-150.07;57.56;56417.97;5002715;28;20120;-89
2021/05/10 08:13:59;;;;;;;16.27;12.30;;;;;;;-150.07;57.59;56489.03;5002725;28;20026;-90
2021/05/10 08:16:26;;;;;;;19.45;13.80;;;;;;;-150.07;58.50;56614.41;5008365;28;20060;-92
2021/05/10 08:18:53;;;;;;;15.02;11.73;;;;;;;-150.07;57.79;56417.97;5011226;28;20029;-91
2021/05/10 08:21:20;;;;;;;13.40;11.98;;;;;;;-150.07;57.41;56430.50;5004640;28;20565;-90
2021/05/10 08:23:46;;;;;;;13.63;11.48;;;;;;;-150.07;56.78;56497.38;5021360;28;20030;-90
2021/05/10 08:26:14;;;;;;;14.48;12.40;;;;;;;-150.07;56.71;56430.50;5015123;28;20124;-89
2021/05/10 08:28:41;;;;;;;15.18;11.48;;;;;;;-150.07;57.09;56802.53;5002616;28;20407;-93
2021/05/10 08:31:07;;;;;;;17.92;10.27;;;;;;;-150.07;57.00;56810.88;5003560;28;20111;-92
2021/05/10 08:33:34;;;;;;;18.25;12.18;;;;;;;-150.07;57.24;56415.88;5019912;28;20032;-89
2021/05/10 08:36:01;;;;;;;13.40;10.75;;;;;;;-150.07;57.39;56518.28;5012716;28;20577;-93
2021/05/10 08:38:28;;;;;;;14.77;10.82;;;;;;;-150.07;57.36;56430.50;5013957;28;20113;-89
2021/05/10 08:40:55;;;;;;;13.52;12.05;;;;;;;-150.07;56.94;56422.16;5009901;28;20026;-93
2021/05/10 08:43:23;;;;;;;18.35;13.57;;;;;;;-150.07;57.04;56436.78;5016592;28;20097;-90
2021/05/10 08:45:56;;;;;;;13.95;9.93;;;;;;;-150.07;56.96;56480.66;5011333;28;20032;-90
2021/05/10 08:48:25;;;;;;;10.80;8.30;;;;;;;-150.07;57.54;56480.66;5002632;28;20056;-90
2021/05/10 08:50:54;;;;;;;13.43;10.70;;;;;;;-150.07;57.53;56524.56;5002187;28;20038;-90
2021/05/10 08:53:40;;;;;;;12.20;10.88;;;;;;;-150.07;57.38;56771.19;5012433;28;20034;-92
2021/05/10 08:56:09;;;;;;;14.20;11.07;;;;;;;-150.07;57.11;56489.03;5017939;28;20030;-94
2021/05/10 08:58:44;;;;;;;14.15;12.18;;;;;;;-150.07;58.09;56447.22;5007240;28;20037;-96
2021/05/10 09:01:21;;;;;;;13.45;11.50;;;;;;;-150.07;57.71;56727.28;5028274;28;20034;-91
2021/05/10 09:03:50;;;;;;;13.13;11.50;;;;;;;-150.07;57.67;56514.09;5026666;28;20034;-93
2021/05/10 09:23:14;;;;;;;11.73;10.13;;;;;;;-150.07;57.24;56509.94;5038388;28;20034;-93
2021/05/10 09:25:44;;;;;;;11.68;10.32;;;;;;;-150.07;56.94;56660.41;5000569;28;20029;-93
2021/05/10 09:28:18;;;;;;;19.60;12.55;;;;;;;-150.07;57.11;56514.09;5008974;28;20022;-93
2021/05/10 09:30:55;;;;;;;15.68;11.38;;;;;;;-150.07;56.38;56430.50;5025434;28;20020;-90
2021/05/10 09:33:47;;;;;;;15.50;11.57;;;;;;;-150.07;56.52;56514.09;5026223;28;20018;-87
2021/05/10 09:36:39;;;;;;;10.55;8.93;;;;;;;-150.07;55.72;56493.22;5010399;28;20516;-89
2021/05/10 09:39:30;;;;;;;10.57;9.30;;;;;;;-150.07;56.18;56507.84;5001200;28;20038;-91
2021/05/10 09:41:59;;;;;;;13.38;10.57;;;;;;;-150.07;56.43;56466.03;4998765;28;20494;-92
2021/05/10 09:44:45;;;;;;;13.73;10.57;;;;;;;-150.07;56.23;56509.94;5000134;28;20034;-92
2021/05/10 09:47:21;;;;;;;10.70;9.50;;;;;;;-150.07;56.98;56428.41;5013348;28;20033;-91
2021/05/10 09:49:51;;;;;;;16.95;11.20;;;;;;;-150.07;56.81;56463.94;5032287;28;20065;-88
2021/05/10 09:52:22;;;;;;;16.52;10.55;;;;;;;-150.07;57.22;56489.03;5004338;28;20026;-92
2021/05/10 09:55:00;;;;;;;14.98;11.02;;;;;;;-150.07;56.24;56501.56;5030782;28;20032;-92
2021/05/10 09:57:28;;;;;;;14.75;11.43;;;;;;;-150.07;55.84;56405.44;5003250;28;20030;-93
2021/05/10 10:00:24;;;;;;;13.27;10.77;;;;;;;-150.07;55.73;56526.66;5023243;28;20026;-96
2021/05/10 10:03:24;;;;;;;11.63;10.25;;;;;;;-150.07;55.08;56501.56;5006964;28;20050;-94
2021/05/10 10:06:06;;;;;;;13.18;9.75;;;;;;;-150.07;55.43;56451.41;5011887;28;20077;-94
2021/05/10 10:08:34;;;;;;;14.35;10.98;;;;;;;-150.07;55.71;56693.84;5010874;28;20034;-94
2021/05/10 10:11:02;;;;;;;12.43;10.52;;;;;;;-150.07;55.40;56472.31;5020600;28;20033;-94
2021/05/10 10:13:29;;;;;;;16.08;11.00;;;;;;;-150.07;55.53;56470.22;4997139;28;20038;-92
2021/05/10 10:15:57;;;;;;;16.60;11.68;;;;;;;-150.07;55.34;56386.63;5015595;28;20025;-90
2021/05/10 10:18:26;;;;;;;15.90;11.23;;;;;;;-150.07;55.13;56522.47;5027394;28;20038;-93
2021/05/10 10:20:56;;;;;;;15.45;10.07;;;;;;;-150.07;54.57;56457.69;5003494;28;20033;-87
2021/05/10 10:23:25;;;;;;;11.00;9.45;;;;;;;-150.07;54.35;56447.22;5019015;28;20052;-89
2021/05/10 10:26:17;;;;;;;16.63;11.70;;;;;;;-150.07;55.00;56526.66;5016141;28;20039;-94
2021/05/10 10:28:49;;;;;;;17.45;10.98;;;;;;;-150.07;55.20;56497.38;5031920;28;20060;-88
2021/05/10 10:31:33;;;;;;;18.75;11.55;;;;;;;-150.07;54.80;56524.56;5019721;28;20026;-89
2021/05/10 10:34:24;;;;;;;19.13;12.35;;;;;;;-150.07;55.25;56535.00;5021634;28;20034;-93
2021/05/10 10:36:55;;;;;;;13.88;12.38;;;;;;;-150.07;55.63;56445.13;5012305;28;20021;-92
2021/05/10 10:39:25;;;;;;;19.75;14.23;;;;;;;-150.07;55.38;56445.13;5000890;28;20036;-89
2021/05/10 10:42:05;;;;;;;17.63;13.82;;;;;;;-150.07;56.03;56474.41;5001394;28;20052;-93
2021/05/10 10:44:43;;;;;;;20.38;14.02;;;;;;;-150.07;55.58;56518.28;5001521;28;20142;-90
2021/05/10 10:47:18;;;;;;;19.20;15.48;;;;;;;-150.07;56.08;56480.66;5005107;28;20041;-90
2021/05/10 10:49:46;;;;;;;18.42;14.48;;;;;;;-150.07;56.33;56478.56;5012892;28;20030;-90
2021/05/10 10:56:13;;;;;;;20.73;14.30;;;;;;;-150.07;55.98;56514.09;5040151;28;20049;-89
2021/05/10 11:04:40;;;;;;;16.65;13.85;;;;;;;-150.07;54.90;56526.66;5723889;22;20054;-92
2021/05/10 11:07:07;;;;;;;19.73;15.13;;;;;;;-150.07;54.97;56512.00;4971348;28;20041;-91
2021/05/10 11:09:46;;;;;;;23.17;15.77;;;;;;;-150.07;55.55;56499.47;4984300;28;20384;-90
2021/05/10 11:12:54;;;;;;;16.05;13.60;;;;;;;-150.07;55.28;56463.94;4986858;28;20022;-92
2021/05/10 11:15:41;;;;;;;22.65;15.68;;;;;;;-150.07;55.78;56497.38;4984817;28;20053;-93
2021/05/10 11:18:09;;;;;;;20.88;15.35;;;;;;;-150.07;55.18;56463.94;5007419;28;20030;-90
2021/05/10 11:20:40;;;;;;;17.17;13.40;;;;;;;-150.07;55.49;56518.28;4996518;28;20053;-92
2021/05/10 11:23:39;;;;;;;18.10;14.57;;;;;;;-150.07;55.48;56461.84;4995282;28;20033;-89
2021/05/10 11:26:08;;;;;;;19.63;15.55;;;;;;;-150.07;55.22;56476.50;4977477;28;20038;-92
2021/05/10 11:28:35;;;;;;;18.13;14.33;;;;;;;-150.07;54.50;56524.56;4971309;28;20084;-88
2021/05/10 11:31:04;;;;;;;22.80;15.38;;;;;;;-150.07;54.50;56509.94;4980020;28;20510;-88
2021/05/10 11:33:55;;;;;;;17.27;14.93;;;;;;;-150.07;53.90;56499.47;4983849;28;20026;-89
2021/05/10 11:36:23;;;;;;;25.35;14.15;;;;;;;-150.07;53.49;56480.66;4994719;28;20038;-89
2021/05/10 11:38:56;;;;;;;20.48;14.43;;;;;;;-150.07;54.12;56470.22;4981715;28;20038;-90
2021/05/10 11:41:33;;;;;;;21.17;15.07;;;;;;;-150.07;53.21;56499.47;4984907;28;20022;-90
2021/05/10 11:44:02;;;;;;;16.88;13.75;;;;;;;-150.07;53.27;56744.00;4979402;28;20038;-89
2021/05/10 11:46:34;;;;;;;18.67;15.15;;;;;;;-150.07;53.29;56468.13;5003372;28;20038;-89
2021/05/10 11:49:00;;;;;;;19.35;13.48;;;;;;;-150.07;53.42;56463.94;4980460;28;20100;-88